CheckWX is a tool to help pilots better visualize weather data.  It is not intended as a substitute for an official pre-flight weather briefing.

12:44:08 UTC

3D2 METAR
Ephraim-Gibraltar Airport
Ephraim, Wisconsin, USA
Current

1 hour ago

K3D2 201135Z AUTO 35011G20KT 10SM OVC012 05/03 A2987 RMK AO2 T00450032
Observed
May-20 @ 11:35 UTC
Wind
  • 350° at 11 KTS
  • Gusting to 20 KTS
Visibility
10 SM
Flight Rules
MVFR
Cloud Levels
  • Overcast at 1,200' AGL
Temperature
C / 41°F
Dewpoint
C / 37°F
Humidity
87%
Altimeter
29.87" Hg
Pressure
1011.52 hPa
Previous

4 hours ago

K3D2 200855Z AUTO 34012G20KT 10SM -RA OVC008 04/04 A2977 RMK AO2 60001 T00420035
Observed
May-20 @ 08:55 UTC
Wind
  • 340° at 12 KTS
  • Gusting to 20 KTS
Visibility
10 SM
Flight Rules
IFR
Conditions
Light Rain
Cloud Levels
  • Overcast at 800' AGL
Temperature
C / 39°F
Dewpoint
C / 39°F
Humidity
100%
Altimeter
29.77" Hg
Pressure
1008.12 hPa
Previous

4 hours ago

K3D2 200835Z AUTO 33013G19KT 7SM -RA OVC006 04/04 A2976 RMK AO2 T00410035
Observed
May-20 @ 08:35 UTC
Wind
  • 330° at 13 KTS
  • Gusting to 19 KTS
Visibility
7 SM
Flight Rules
IFR
Conditions
Light Rain
Cloud Levels
  • Overcast at 600' AGL
Temperature
C / 39°F
Dewpoint
C / 39°F
Humidity
100%
Altimeter
29.76" Hg
Pressure
1007.82 hPa